sensor_id;sensor_type;location;lat;lon;timestamp;P1;durP1;ratioP1;P2;durP2;ratioP2
10596;SDS011;5346;48.766;8.674;2023-10-31T00:01:33;2.60;;;0.67;;
10596;SDS011;5346;48.766;8.674;2023-10-31T00:04:07;0.40;;;0.33;;
10596;SDS011;5346;48.766;8.674;2023-10-31T00:06:35;1.63;;;0.70;;
10596;SDS011;5346;48.766;8.674;2023-10-31T00:09:09;1.20;;;0.70;;
10596;SDS011;5346;48.766;8.674;2023-10-31T00:11:49;1.10;;;0.83;;
10596;SDS011;5346;48.766;8.674;2023-10-31T00:14:31;1.67;;;0.80;;
10596;SDS011;5346;48.766;8.674;2023-10-31T00:17:09;2.17;;;0.70;;
10596;SDS011;5346;48.766;8.674;2023-10-31T00:19:43;3.00;;;0.77;;
10596;SDS011;5346;48.766;8.674;2023-10-31T00:22:18;1.53;;;1.00;;
10596;SDS011;5346;48.766;8.674;2023-10-31T00:24:46;2.43;;;0.87;;
10596;SDS011;5346;48.766;8.674;2023-10-31T00:27:20;3.30;;;0.73;;
10596;SDS011;5346;48.766;8.674;2023-10-31T00:29:48;1.97;;;0.63;;
10596;SDS011;5346;48.766;8.674;2023-10-31T00:32:22;0.70;;;0.70;;
10596;SDS011;5346;48.766;8.674;2023-10-31T00:34:58;3.23;;;0.80;;
10596;SDS011;5346;48.766;8.674;2023-10-31T00:37:34;0.87;;;0.83;;
10596;SDS011;5346;48.766;8.674;2023-10-31T00:40:08;1.40;;;0.90;;
10596;SDS011;5346;48.766;8.674;2023-10-31T00:42:40;1.40;;;0.83;;
10596;SDS011;5346;48.766;8.674;2023-10-31T00:45:15;0.90;;;0.87;;
10596;SDS011;5346;48.766;8.674;2023-10-31T00:47:44;4.00;;;0.90;;
10596;SDS011;5346;48.766;8.674;2023-10-31T00:50:18;0.97;;;0.80;;
10596;SDS011;5346;48.766;8.674;2023-10-31T00:52:46;2.63;;;0.87;;
10596;SDS011;5346;48.766;8.674;2023-10-31T00:55:20;2.23;;;0.93;;
10596;SDS011;5346;48.766;8.674;2023-10-31T00:57:48;0.87;;;0.60;;
10596;SDS011;5346;48.766;8.674;2023-10-31T01:00:22;1.17;;;0.70;;
10596;SDS011;5346;48.766;8.674;2023-10-31T01:02:50;1.23;;;0.53;;
10596;SDS011;5346;48.766;8.674;2023-10-31T01:05:26;0.80;;;0.70;;
10596;SDS011;5346;48.766;8.674;2023-10-31T01:07:54;2.10;;;0.97;;
10596;SDS011;5346;48.766;8.674;2023-10-31T01:10:29;2.87;;;0.73;;
10596;SDS011;5346;48.766;8.674;2023-10-31T01:13:13;1.17;;;0.87;;
10596;SDS011;5346;48.766;8.674;2023-10-31T01:15:54;1.47;;;0.80;;
10596;SDS011;5346;48.766;8.674;2023-10-31T01:18:22;4.50;;;1.10;;
10596;SDS011;5346;48.766;8.674;2023-10-31T01:20:56;1.90;;;1.00;;
10596;SDS011;5346;48.766;8.674;2023-10-31T01:23:30;2.60;;;0.90;;
10596;SDS011;5346;48.766;8.674;2023-10-31T01:26:04;3.57;;;0.87;;
10596;SDS011;5346;48.766;8.674;2023-10-31T01:28:32;3.20;;;0.80;;
10596;SDS011;5346;48.766;8.674;2023-10-31T01:31:06;2.47;;;1.17;;
10596;SDS011;5346;48.766;8.674;2023-10-31T01:33:35;1.03;;;0.80;;
10596;SDS011;5346;48.766;8.674;2023-10-31T01:36:11;0.80;;;0.63;;
10596;SDS011;5346;48.766;8.674;2023-10-31T01:38:41;0.67;;;0.67;;
10596;SDS011;5346;48.766;8.674;2023-10-31T01:41:15;1.00;;;0.80;;
10596;SDS011;5346;48.766;8.674;2023-10-31T01:43:43;3.70;;;0.80;;
10596;SDS011;5346;48.766;8.674;2023-10-31T01:46:18;0.70;;;0.70;;
10596;SDS011;5346;48.766;8.674;2023-10-31T01:48:52;3.07;;;0.70;;
10596;SDS011;5346;48.766;8.674;2023-10-31T01:51:23;2.87;;;0.70;;
10596;SDS011;5346;48.766;8.674;2023-10-31T01:54:00;0.60;;;0.60;;
10596;SDS011;5346;48.766;8.674;2023-10-31T01:56:28;1.63;;;0.80;;
10596;SDS011;5346;48.766;8.674;2023-10-31T01:58:55;1.77;;;0.80;;
10596;SDS011;5346;48.766;8.674;2023-10-31T02:01:29;3.17;;;1.17;;
10596;SDS011;5346;48.766;8.674;2023-10-31T02:03:58;1.57;;;1.23;;
10596;SDS011;5346;48.766;8.674;2023-10-31T02:06:35;1.67;;;0.80;;
10596;SDS011;5346;48.766;8.674;2023-10-31T02:09:10;1.70;;;0.77;;
10596;SDS011;5346;48.766;8.674;2023-10-31T02:11:51;1.13;;;0.60;;
10596;SDS011;5346;48.766;8.674;2023-10-31T02:14:34;0.80;;;0.70;;
10596;SDS011;5346;48.766;8.674;2023-10-31T02:17:08;1.10;;;0.50;;
10596;SDS011;5346;48.766;8.674;2023-10-31T02:19:42;0.97;;;0.70;;
10596;SDS011;5346;48.766;8.674;2023-10-31T02:22:18;0.77;;;0.67;;
10596;SDS011;5346;48.766;8.674;2023-10-31T02:24:52;1.23;;;0.80;;
10596;SDS011;5346;48.766;8.674;2023-10-31T02:27:26;1.77;;;0.70;;
10596;SDS011;5346;48.766;8.674;2023-10-31T02:30:06;2.33;;;0.70;;
10596;SDS011;5346;48.766;8.674;2023-10-31T02:32:42;0.70;;;0.63;;
10596;SDS011;5346;48.766;8.674;2023-10-31T02:35:10;1.00;;;0.57;;
10596;SDS011;5346;48.766;8.674;2023-10-31T02:37:38;2.60;;;0.73;;
10596;SDS011;5346;48.766;8.674;2023-10-31T02:40:13;2.03;;;0.70;;
10596;SDS011;5346;48.766;8.674;2023-10-31T02:42:41;0.70;;;0.60;;
10596;SDS011;5346;48.766;8.674;2023-10-31T02:45:17;1.43;;;0.80;;
10596;SDS011;5346;48.766;8.674;2023-10-31T02:47:49;3.60;;;0.70;;
10596;SDS011;5346;48.766;8.674;2023-10-31T02:50:23;1.00;;;0.90;;
10596;SDS011;5346;48.766;8.674;2023-10-31T02:52:58;2.03;;;0.70;;
10596;SDS011;5346;48.766;8.674;2023-10-31T02:55:26;0.60;;;0.60;;
10596;SDS011;5346;48.766;8.674;2023-10-31T02:58:00;1.53;;;0.80;;
10596;SDS011;5346;48.766;8.674;2023-10-31T03:00:34;4.27;;;0.70;;
10596;SDS011;5346;48.766;8.674;2023-10-31T03:03:09;2.43;;;0.60;;
10596;SDS011;5346;48.766;8.674;2023-10-31T03:05:37;1.73;;;0.90;;
10596;SDS011;5346;48.766;8.674;2023-10-31T03:08:11;4.00;;;0.70;;
10596;SDS011;5346;48.766;8.674;2023-10-31T03:10:40;1.00;;;0.80;;
10596;SDS011;5346;48.766;8.674;2023-10-31T03:13:09;2.93;;;1.13;;
10596;SDS011;5346;48.766;8.674;2023-10-31T03:15:43;2.77;;;0.70;;
10596;SDS011;5346;48.766;8.674;2023-10-31T03:18:21;1.23;;;0.73;;
10596;SDS011;5346;48.766;8.674;2023-10-31T03:20:56;2.83;;;0.70;;
10596;SDS011;5346;48.766;8.674;2023-10-31T03:23:24;0.97;;;0.50;;
10596;SDS011;5346;48.766;8.674;2023-10-31T03:25:58;2.00;;;0.73;;
10596;SDS011;5346;48.766;8.674;2023-10-31T03:28:26;3.40;;;0.90;;
10596;SDS011;5346;48.766;8.674;2023-10-31T03:31:00;2.00;;;0.80;;
10596;SDS011;5346;48.766;8.674;2023-10-31T03:33:37;1.67;;;0.83;;
10596;SDS011;5346;48.766;8.674;2023-10-31T03:36:12;0.80;;;0.80;;
10596;SDS011;5346;48.766;8.674;2023-10-31T03:38:46;1.47;;;0.80;;
10596;SDS011;5346;48.766;8.674;2023-10-31T03:41:20;3.93;;;0.63;;
10596;SDS011;5346;48.766;8.674;2023-10-31T03:43:55;2.90;;;0.70;;
10596;SDS011;5346;48.766;8.674;2023-10-31T03:46:32;1.93;;;0.80;;
10596;SDS011;5346;48.766;8.674;2023-10-31T03:49:06;4.10;;;0.90;;
10596;SDS011;5346;48.766;8.674;2023-10-31T03:51:41;1.43;;;0.83;;
10596;SDS011;5346;48.766;8.674;2023-10-31T03:54:16;0.40;;;0.40;;
10596;SDS011;5346;48.766;8.674;2023-10-31T03:56:50;0.80;;;0.60;;
10596;SDS011;5346;48.766;8.674;2023-10-31T03:59:20;1.30;;;0.60;;
10596;SDS011;5346;48.766;8.674;2023-10-31T04:01:54;1.73;;;0.87;;
10596;SDS011;5346;48.766;8.674;2023-10-31T04:04:22;1.17;;;0.77;;
10596;SDS011;5346;48.766;8.674;2023-10-31T04:06:56;2.23;;;0.73;;
10596;SDS011;5346;48.766;8.674;2023-10-31T04:09:30;1.37;;;0.70;;
10596;SDS011;5346;48.766;8.674;2023-10-31T04:11:57;0.63;;;0.63;;
10596;SDS011;5346;48.766;8.674;2023-10-31T04:14:38;3.80;;;0.73;;
10596;SDS011;5346;48.766;8.674;2023-10-31T04:17:06;1.63;;;0.77;;
10596;SDS011;5346;48.766;8.674;2023-10-31T04:19:41;1.20;;;0.70;;
10596;SDS011;5346;48.766;8.674;2023-10-31T04:22:08;0.60;;;0.60;;
10596;SDS011;5346;48.766;8.674;2023-10-31T04:24:43;1.00;;;0.90;;
10596;SDS011;5346;48.766;8.674;2023-10-31T04:27:11;1.30;;;0.87;;
10596;SDS011;5346;48.766;8.674;2023-10-31T04:29:45;2.03;;;0.87;;
10596;SDS011;5346;48.766;8.674;2023-10-31T04:32:12;0.53;;;0.50;;
10596;SDS011;5346;48.766;8.674;2023-10-31T04:34:47;0.80;;;0.80;;
10596;SDS011;5346;48.766;8.674;2023-10-31T04:37:21;0.90;;;0.80;;
10596;SDS011;5346;48.766;8.674;2023-10-31T04:39:49;1.17;;;1.07;;
10596;SDS011;5346;48.766;8.674;2023-10-31T04:42:20;0.70;;;0.70;;
10596;SDS011;5346;48.766;8.674;2023-10-31T04:44:56;1.23;;;1.00;;
10596;SDS011;5346;48.766;8.674;2023-10-31T04:47:30;2.20;;;0.60;;
10596;SDS011;5346;48.766;8.674;2023-10-31T04:50:04;2.10;;;0.80;;
10596;SDS011;5346;48.766;8.674;2023-10-31T04:52:39;5.20;;;0.90;;
10596;SDS011;5346;48.766;8.674;2023-10-31T04:55:15;0.80;;;0.80;;
10596;SDS011;5346;48.766;8.674;2023-10-31T04:57:49;2.63;;;1.00;;
10596;SDS011;5346;48.766;8.674;2023-10-31T05:00:24;7.47;;;0.83;;
10596;SDS011;5346;48.766;8.674;2023-10-31T05:02:54;1.10;;;0.90;;
10596;SDS011;5346;48.766;8.674;2023-10-31T05:05:31;1.30;;;0.70;;
10596;SDS011;5346;48.766;8.674;2023-10-31T05:08:07;0.70;;;0.70;;
10596;SDS011;5346;48.766;8.674;2023-10-31T05:10:42;0.50;;;0.50;;
10596;SDS011;5346;48.766;8.674;2023-10-31T05:13:14;7.00;;;0.60;;
10596;SDS011;5346;48.766;8.674;2023-10-31T05:15:48;3.07;;;1.00;;
10596;SDS011;5346;48.766;8.674;2023-10-31T05:18:16;9.13;;;0.73;;
10596;SDS011;5346;48.766;8.674;2023-10-31T05:20:51;3.90;;;1.33;;
10596;SDS011;5346;48.766;8.674;2023-10-31T05:23:19;1.80;;;0.73;;
10596;SDS011;5346;48.766;8.674;2023-10-31T05:25:53;2.40;;;0.67;;
10596;SDS011;5346;48.766;8.674;2023-10-31T05:28:22;1.63;;;0.70;;
10596;SDS011;5346;48.766;8.674;2023-10-31T05:30:57;0.67;;;0.67;;
10596;SDS011;5346;48.766;8.674;2023-10-31T05:33:24;1.43;;;0.70;;
10596;SDS011;5346;48.766;8.674;2023-10-31T05:35:59;0.97;;;0.50;;
10596;SDS011;5346;48.766;8.674;2023-10-31T05:38:42;0.70;;;0.40;;
10596;SDS011;5346;48.766;8.674;2023-10-31T05:41:16;1.17;;;0.90;;
10596;SDS011;5346;48.766;8.674;2023-10-31T05:43:50;0.50;;;0.50;;
10596;SDS011;5346;48.766;8.674;2023-10-31T05:46:26;1.13;;;0.70;;
10596;SDS011;5346;48.766;8.674;2023-10-31T05:48:54;1.70;;;0.60;;
10596;SDS011;5346;48.766;8.674;2023-10-31T05:51:28;1.23;;;0.57;;
10596;SDS011;5346;48.766;8.674;2023-10-31T05:54:02;0.70;;;0.60;;
10596;SDS011;5346;48.766;8.674;2023-10-31T05:56:30;1.27;;;0.70;;
10596;SDS011;5346;48.766;8.674;2023-10-31T05:59:05;2.43;;;0.90;;
10596;SDS011;5346;48.766;8.674;2023-10-31T06:01:33;0.73;;;0.43;;
10596;SDS011;5346;48.766;8.674;2023-10-31T06:04:16;2.00;;;0.60;;
10596;SDS011;5346;48.766;8.674;2023-10-31T06:06:44;1.17;;;0.57;;
10596;SDS011;5346;48.766;8.674;2023-10-31T06:09:18;1.80;;;0.47;;
10596;SDS011;5346;48.766;8.674;2023-10-31T06:11:53;0.60;;;0.60;;
10596;SDS011;5346;48.766;8.674;2023-10-31T06:14:33;0.83;;;0.73;;
10596;SDS011;5346;48.766;8.674;2023-10-31T06:17:02;3.30;;;0.53;;
10596;SDS011;5346;48.766;8.674;2023-10-31T06:19:38;2.77;;;0.40;;
10596;SDS011;5346;48.766;8.674;2023-10-31T06:22:13;0.87;;;0.47;;
10596;SDS011;5346;48.766;8.674;2023-10-31T06:24:47;3.10;;;1.00;;
10596;SDS011;5346;48.766;8.674;2023-10-31T06:27:15;0.63;;;0.50;;
10596;SDS011;5346;48.766;8.674;2023-10-31T06:29:49;5.73;;;0.90;;
10596;SDS011;5346;48.766;8.674;2023-10-31T06:32:37;2.43;;;0.67;;
10596;SDS011;5346;48.766;8.674;2023-10-31T06:35:17;1.27;;;0.67;;
10596;SDS011;5346;48.766;8.674;2023-10-31T06:37:45;2.17;;;0.70;;
10596;SDS011;5346;48.766;8.674;2023-10-31T06:40:19;3.50;;;1.00;;
10596;SDS011;5346;48.766;8.674;2023-10-31T06:42:47;2.60;;;0.80;;
10596;SDS011;5346;48.766;8.674;2023-10-31T06:45:21;0.83;;;0.50;;
10596;SDS011;5346;48.766;8.674;2023-10-31T06:47:49;1.63;;;0.87;;
10596;SDS011;5346;48.766;8.674;2023-10-31T06:50:23;4.17;;;0.80;;
10596;SDS011;5346;48.766;8.674;2023-10-31T06:52:54;3.83;;;0.80;;
10596;SDS011;5346;48.766;8.674;2023-10-31T06:55:29;3.13;;;0.90;;
10596;SDS011;5346;48.766;8.674;2023-10-31T06:58:04;1.07;;;0.70;;
10596;SDS011;5346;48.766;8.674;2023-10-31T07:00:32;2.30;;;0.70;;
10596;SDS011;5346;48.766;8.674;2023-10-31T07:03:00;2.60;;;1.00;;
10596;SDS011;5346;48.766;8.674;2023-10-31T07:05:42;1.40;;;0.77;;
10596;SDS011;5346;48.766;8.674;2023-10-31T07:08:12;2.17;;;0.63;;
10596;SDS011;5346;48.766;8.674;2023-10-31T07:10:46;2.63;;;0.80;;
10596;SDS011;5346;48.766;8.674;2023-10-31T07:13:20;7.90;;;1.10;;
10596;SDS011;5346;48.766;8.674;2023-10-31T07:16:05;5.13;;;0.93;;
10596;SDS011;5346;48.766;8.674;2023-10-31T07:18:39;1.93;;;0.80;;
10596;SDS011;5346;48.766;8.674;2023-10-31T07:21:13;1.27;;;0.67;;
10596;SDS011;5346;48.766;8.674;2023-10-31T07:23:47;2.23;;;0.93;;
10596;SDS011;5346;48.766;8.674;2023-10-31T07:26:24;1.73;;;0.97;;
10596;SDS011;5346;48.766;8.674;2023-10-31T07:29:00;3.37;;;1.00;;
10596;SDS011;5346;48.766;8.674;2023-10-31T07:31:28;3.37;;;0.97;;
10596;SDS011;5346;48.766;8.674;2023-10-31T07:34:02;1.87;;;0.70;;
10596;SDS011;5346;48.766;8.674;2023-10-31T07:36:30;3.70;;;0.87;;
10596;SDS011;5346;48.766;8.674;2023-10-31T07:39:08;3.60;;;1.10;;
10596;SDS011;5346;48.766;8.674;2023-10-31T07:41:36;2.23;;;0.90;;
10596;SDS011;5346;48.766;8.674;2023-10-31T07:44:10;3.43;;;1.00;;
10596;SDS011;5346;48.766;8.674;2023-10-31T07:46:38;3.07;;;1.37;;
10596;SDS011;5346;48.766;8.674;2023-10-31T07:49:15;5.17;;;1.00;;
10596;SDS011;5346;48.766;8.674;2023-10-31T07:51:43;3.67;;;1.10;;
10596;SDS011;5346;48.766;8.674;2023-10-31T07:54:17;3.00;;;1.00;;
10596;SDS011;5346;48.766;8.674;2023-10-31T07:56:46;3.93;;;1.00;;
10596;SDS011;5346;48.766;8.674;2023-10-31T07:59:22;2.10;;;0.80;;
10596;SDS011;5346;48.766;8.674;2023-10-31T08:01:57;4.07;;;0.70;;
10596;SDS011;5346;48.766;8.674;2023-10-31T08:04:32;2.67;;;0.63;;
10596;SDS011;5346;48.766;8.674;2023-10-31T08:07:00;4.77;;;1.10;;
10596;SDS011;5346;48.766;8.674;2023-10-31T08:09:34;2.60;;;0.77;;
10596;SDS011;5346;48.766;8.674;2023-10-31T08:12:08;1.87;;;0.93;;
10596;SDS011;5346;48.766;8.674;2023-10-31T08:14:49;1.90;;;0.80;;
10596;SDS011;5346;48.766;8.674;2023-10-31T08:17:24;1.70;;;1.03;;
10596;SDS011;5346;48.766;8.674;2023-10-31T08:19:57;4.10;;;1.00;;
10596;SDS011;5346;48.766;8.674;2023-10-31T08:22:37;3.70;;;1.00;;
10596;SDS011;5346;48.766;8.674;2023-10-31T08:25:12;3.50;;;0.97;;
10596;SDS011;5346;48.766;8.674;2023-10-31T08:27:46;4.63;;;1.10;;
10596;SDS011;5346;48.766;8.674;2023-10-31T08:30:27;3.42;;;1.05;;
10596;SDS011;5346;48.766;8.674;2023-10-31T08:33:02;4.47;;;1.10;;
10596;SDS011;5346;48.766;8.674;2023-10-31T08:35:44;3.30;;;1.10;;
10596;SDS011;5346;48.766;8.674;2023-10-31T08:38:19;4.32;;;1.58;;
10596;SDS011;5346;48.766;8.674;2023-10-31T08:40:57;3.80;;;1.00;;
10596;SDS011;5346;48.766;8.674;2023-10-31T08:43:43;5.60;;;1.50;;
10596;SDS011;5346;48.766;8.674;2023-10-31T08:46:15;5.65;;;1.10;;
10596;SDS011;5346;48.766;8.674;2023-10-31T08:48:49;3.28;;;0.82;;
10596;SDS011;5346;48.766;8.674;2023-10-31T08:51:22;4.78;;;1.20;;
10596;SDS011;5346;48.766;8.674;2023-10-31T08:54:08;2.97;;;1.00;;
10596;SDS011;5346;48.766;8.674;2023-10-31T08:56:36;3.22;;;0.85;;
10596;SDS011;5346;48.766;8.674;2023-10-31T08:59:12;2.42;;;0.70;;
10596;SDS011;5346;48.766;8.674;2023-10-31T09:01:40;1.92;;;0.82;;
10596;SDS011;5346;48.766;8.674;2023-10-31T09:04:15;5.22;;;1.45;;
10596;SDS011;5346;48.766;8.674;2023-10-31T09:06:49;1.98;;;0.98;;
10596;SDS011;5346;48.766;8.674;2023-10-31T09:09:23;6.45;;;1.13;;
10596;SDS011;5346;48.766;8.674;2023-10-31T09:11:51;9.48;;;1.55;;
10596;SDS011;5346;48.766;8.674;2023-10-31T09:14:26;5.03;;;1.30;;
10596;SDS011;5346;48.766;8.674;2023-10-31T09:17:02;3.42;;;1.20;;
10596;SDS011;5346;48.766;8.674;2023-10-31T09:19:36;4.82;;;1.10;;
10596;SDS011;5346;48.766;8.674;2023-10-31T09:22:11;4.93;;;1.15;;
10596;SDS011;5346;48.766;8.674;2023-10-31T09:24:45;5.40;;;1.10;;
10596;SDS011;5346;48.766;8.674;2023-10-31T09:27:12;3.28;;;1.20;;
10596;SDS011;5346;48.766;8.674;2023-10-31T09:29:46;5.13;;;1.27;;
10596;SDS011;5346;48.766;8.674;2023-10-31T09:32:14;6.65;;;1.30;;
10596;SDS011;5346;48.766;8.674;2023-10-31T09:34:50;6.10;;;1.25;;
10596;SDS011;5346;48.766;8.674;2023-10-31T09:37:18;3.70;;;1.23;;
10596;SDS011;5346;48.766;8.674;2023-10-31T09:39:49;2.85;;;0.85;;
10596;SDS011;5346;48.766;8.674;2023-10-31T09:42:24;6.25;;;1.15;;
10596;SDS011;5346;48.766;8.674;2023-10-31T09:44:52;4.95;;;1.13;;
10596;SDS011;5346;48.766;8.674;2023-10-31T09:47:28;5.45;;;1.15;;
10596;SDS011;5346;48.766;8.674;2023-10-31T09:49:59;3.78;;;0.98;;
10596;SDS011;5346;48.766;8.674;2023-10-31T09:52:33;2.67;;;1.05;;
10596;SDS011;5346;48.766;8.674;2023-10-31T09:55:11;2.60;;;0.93;;
10596;SDS011;5346;48.766;8.674;2023-10-31T09:57:45;2.40;;;0.85;;
10596;SDS011;5346;48.766;8.674;2023-10-31T10:00:18;2.17;;;0.70;;
10596;SDS011;5346;48.766;8.674;2023-10-31T10:02:54;3.17;;;0.60;;
10596;SDS011;5346;48.766;8.674;2023-10-31T10:05:22;2.47;;;0.80;;
10596;SDS011;5346;48.766;8.674;2023-10-31T10:07:58;2.05;;;0.75;;
10596;SDS011;5346;48.766;8.674;2023-10-31T10:10:25;2.30;;;0.60;;
10596;SDS011;5346;48.766;8.674;2023-10-31T10:13:00;6.72;;;0.98;;
10596;SDS011;5346;48.766;8.674;2023-10-31T10:15:46;1.08;;;0.60;;
10596;SDS011;5346;48.766;8.674;2023-10-31T10:18:25;2.35;;;0.63;;
10596;SDS011;5346;48.766;8.674;2023-10-31T10:21:04;1.83;;;0.47;;
10596;SDS011;5346;48.766;8.674;2023-10-31T10:23:33;0.63;;;0.40;;
10596;SDS011;5346;48.766;8.674;2023-10-31T10:26:02;1.52;;;0.70;;
10596;SDS011;5346;48.766;8.674;2023-10-31T10:28:38;0.95;;;0.57;;
10596;SDS011;5346;48.766;8.674;2023-10-31T10:31:05;1.85;;;0.63;;
10596;SDS011;5346;48.766;8.674;2023-10-31T10:33:47;3.75;;;0.75;;
10596;SDS011;5346;48.766;8.674;2023-10-31T10:36:14;1.58;;;0.40;;
10596;SDS011;5346;48.766;8.674;2023-10-31T10:38:49;2.38;;;0.50;;
10596;SDS011;5346;48.766;8.674;2023-10-31T10:41:23;1.42;;;0.70;;
10596;SDS011;5346;48.766;8.674;2023-10-31T10:44:04;3.47;;;0.50;;
10596;SDS011;5346;48.766;8.674;2023-10-31T10:46:40;3.20;;;0.47;;
10596;SDS011;5346;48.766;8.674;2023-10-31T10:49:09;2.05;;;0.63;;
10596;SDS011;5346;48.766;8.674;2023-10-31T10:54:25;2.40;;;0.60;;
10596;SDS011;5346;48.766;8.674;2023-10-31T10:57:36;1.38;;;0.60;;
10596;SDS011;5346;48.766;8.674;2023-10-31T11:00:15;3.50;;;0.75;;
10596;SDS011;5346;48.766;8.674;2023-10-31T11:02:51;1.10;;;0.55;;
10596;SDS011;5346;48.766;8.674;2023-10-31T11:05:29;1.85;;;0.30;;
10596;SDS011;5346;48.766;8.674;2023-10-31T11:08:01;0.85;;;0.43;;
10596;SDS011;5346;48.766;8.674;2023-10-31T11:10:37;0.45;;;0.40;;
10596;SDS011;5346;48.766;8.674;2023-10-31T11:13:12;3.30;;;0.63;;
10596;SDS011;5346;48.766;8.674;2023-10-31T11:16:02;2.17;;;0.63;;
10596;SDS011;5346;48.766;8.674;2023-10-31T11:18:36;1.02;;;0.43;;
10596;SDS011;5346;48.766;8.674;2023-10-31T11:21:10;2.70;;;0.40;;
10596;SDS011;5346;48.766;8.674;2023-10-31T11:23:37;2.50;;;0.70;;
10596;SDS011;5346;48.766;8.674;2023-10-31T11:26:13;2.20;;;0.43;;
10596;SDS011;5346;48.766;8.674;2023-10-31T11:28:43;2.75;;;0.65;;
10596;SDS011;5346;48.766;8.674;2023-10-31T11:31:18;3.13;;;0.60;;
10596;SDS011;5346;48.766;8.674;2023-10-31T11:33:53;3.45;;;0.75;;
10596;SDS011;5346;48.766;8.674;2023-10-31T11:36:31;4.80;;;0.68;;
10596;SDS011;5346;48.766;8.674;2023-10-31T11:39:12;2.80;;;0.40;;
10596;SDS011;5346;48.766;8.674;2023-10-31T11:41:48;2.60;;;0.50;;
10596;SDS011;5346;48.766;8.674;2023-10-31T11:44:27;1.77;;;0.30;;
10596;SDS011;5346;48.766;8.674;2023-10-31T11:47:02;1.02;;;0.30;;
10596;SDS011;5346;48.766;8.674;2023-10-31T11:49:45;2.20;;;0.50;;
10596;SDS011;5346;48.766;8.674;2023-10-31T11:52:21;1.52;;;0.60;;
10596;SDS011;5346;48.766;8.674;2023-10-31T11:54:53;0.63;;;0.40;;
10596;SDS011;5346;48.766;8.674;2023-10-31T11:57:29;0.80;;;0.38;;
10596;SDS011;5346;48.766;8.674;2023-10-31T11:59:57;1.15;;;0.30;;
10596;SDS011;5346;48.766;8.674;2023-10-31T12:02:34;0.38;;;0.22;;
10596;SDS011;5346;48.766;8.674;2023-10-31T12:05:12;0.68;;;0.35;;
10596;SDS011;5346;48.766;8.674;2023-10-31T12:07:48;1.08;;;0.43;;
10596;SDS011;5346;48.766;8.674;2023-10-31T12:10:25;0.60;;;0.40;;
10596;SDS011;5346;48.766;8.674;2023-10-31T12:13:05;0.50;;;0.22;;
10596;SDS011;5346;48.766;8.674;2023-10-31T12:15:52;1.70;;;0.32;;
10596;SDS011;5346;48.766;8.674;2023-10-31T12:18:28;0.70;;;0.20;;
10596;SDS011;5346;48.766;8.674;2023-10-31T12:21:02;1.58;;;0.40;;
10596;SDS011;5346;48.766;8.674;2023-10-31T12:23:30;2.08;;;0.70;;
10596;SDS011;5346;48.766;8.674;2023-10-31T12:26:05;0.52;;;0.30;;
10596;SDS011;5346;48.766;8.674;2023-10-31T12:28:34;0.55;;;0.20;;
10596;SDS011;5346;48.766;8.674;2023-10-31T12:31:04;0.43;;;0.30;;
10596;SDS011;5346;48.766;8.674;2023-10-31T12:33:39;1.42;;;0.38;;
10596;SDS011;5346;48.766;8.674;2023-10-31T12:36:14;0.52;;;0.40;;
10596;SDS011;5346;48.766;8.674;2023-10-31T12:38:48;0.85;;;0.52;;
10596;SDS011;5346;48.766;8.674;2023-10-31T12:41:23;0.75;;;0.60;;
10596;SDS011;5346;48.766;8.674;2023-10-31T12:43:51;1.33;;;0.43;;
10596;SDS011;5346;48.766;8.674;2023-10-31T12:46:28;0.60;;;0.40;;
10596;SDS011;5346;48.766;8.674;2023-10-31T12:48:57;1.38;;;0.30;;
10596;SDS011;5346;48.766;8.674;2023-10-31T12:51:32;2.05;;;0.80;;
10596;SDS011;5346;48.766;8.674;2023-10-31T12:54:00;1.08;;;0.60;;
10596;SDS011;5346;48.766;8.674;2023-10-31T12:56:34;3.03;;;0.70;;
10596;SDS011;5346;48.766;8.674;2023-10-31T12:59:09;0.93;;;0.50;;
10596;SDS011;5346;48.766;8.674;2023-10-31T13:01:45;1.50;;;0.40;;
10596;SDS011;5346;48.766;8.674;2023-10-31T13:04:29;0.82;;;0.60;;
10596;SDS011;5346;48.766;8.674;2023-10-31T13:07:00;0.60;;;0.60;;
10596;SDS011;5346;48.766;8.674;2023-10-31T13:09:40;2.10;;;0.65;;
10596;SDS011;5346;48.766;8.674;2023-10-31T13:12:09;1.23;;;0.60;;
10596;SDS011;5346;48.766;8.674;2023-10-31T13:14:51;1.88;;;0.57;;
10596;SDS011;5346;48.766;8.674;2023-10-31T13:17:19;0.85;;;0.60;;
10596;SDS011;5346;48.766;8.674;2023-10-31T13:19:53;1.45;;;0.50;;
10596;SDS011;5346;48.766;8.674;2023-10-31T13:22:21;1.92;;;0.70;;
10596;SDS011;5346;48.766;8.674;2023-10-31T13:24:55;1.95;;;0.60;;
10596;SDS011;5346;48.766;8.674;2023-10-31T13:27:23;3.53;;;0.80;;
10596;SDS011;5346;48.766;8.674;2023-10-31T13:29:57;2.75;;;0.70;;
10596;SDS011;5346;48.766;8.674;2023-10-31T13:32:25;1.67;;;0.70;;
10596;SDS011;5346;48.766;8.674;2023-10-31T13:35:00;0.80;;;0.55;;
10596;SDS011;5346;48.766;8.674;2023-10-31T13:37:35;2.25;;;0.90;;
10596;SDS011;5346;48.766;8.674;2023-10-31T13:40:10;1.48;;;0.88;;
10596;SDS011;5346;48.766;8.674;2023-10-31T13:42:46;0.95;;;0.63;;
10596;SDS011;5346;48.766;8.674;2023-10-31T13:45:14;2.60;;;0.60;;
10596;SDS011;5346;48.766;8.674;2023-10-31T13:47:48;1.42;;;0.80;;
10596;SDS011;5346;48.766;8.674;2023-10-31T13:50:22;1.17;;;0.70;;
10596;SDS011;5346;48.766;8.674;2023-10-31T13:52:50;1.20;;;0.60;;
10596;SDS011;5346;48.766;8.674;2023-10-31T13:55:25;1.27;;;0.70;;
10596;SDS011;5346;48.766;8.674;2023-10-31T13:58:00;1.73;;;0.60;;
10596;SDS011;5346;48.766;8.674;2023-10-31T14:00:27;0.98;;;0.60;;
10596;SDS011;5346;48.766;8.674;2023-10-31T14:03:02;0.68;;;0.43;;
10596;SDS011;5346;48.766;8.674;2023-10-31T14:05:30;0.68;;;0.68;;
10596;SDS011;5346;48.766;8.674;2023-10-31T14:08:05;2.78;;;1.27;;
10596;SDS011;5346;48.766;8.674;2023-10-31T14:10:40;1.67;;;0.60;;
10596;SDS011;5346;48.766;8.674;2023-10-31T14:13:18;0.75;;;0.57;;
10596;SDS011;5346;48.766;8.674;2023-10-31T14:15:53;1.08;;;0.70;;
10596;SDS011;5346;48.766;8.674;2023-10-31T14:18:28;2.65;;;0.93;;
10596;SDS011;5346;48.766;8.674;2023-10-31T14:21:02;1.17;;;0.50;;
10596;SDS011;5346;48.766;8.674;2023-10-31T14:23:30;0.98;;;0.60;;
10596;SDS011;5346;48.766;8.674;2023-10-31T14:26:05;1.60;;;0.80;;
10596;SDS011;5346;48.766;8.674;2023-10-31T14:28:40;2.42;;;0.80;;
10596;SDS011;5346;48.766;8.674;2023-10-31T14:31:16;3.92;;;0.60;;
10596;SDS011;5346;48.766;8.674;2023-10-31T14:33:44;1.65;;;0.80;;
10596;SDS011;5346;48.766;8.674;2023-10-31T14:36:12;1.00;;;0.60;;
10596;SDS011;5346;48.766;8.674;2023-10-31T14:38:47;0.73;;;0.60;;
10596;SDS011;5346;48.766;8.674;2023-10-31T14:41:25;2.00;;;0.80;;
10596;SDS011;5346;48.766;8.674;2023-10-31T14:44:00;1.08;;;0.85;;
10596;SDS011;5346;48.766;8.674;2023-10-31T14:46:29;0.98;;;0.77;;
10596;SDS011;5346;48.766;8.674;2023-10-31T14:48:57;2.83;;;0.70;;
10596;SDS011;5346;48.766;8.674;2023-10-31T14:51:31;3.70;;;0.70;;
10596;SDS011;5346;48.766;8.674;2023-10-31T14:53:59;2.28;;;0.77;;
10596;SDS011;5346;48.766;8.674;2023-10-31T14:56:33;2.20;;;0.77;;
10596;SDS011;5346;48.766;8.674;2023-10-31T14:59:03;5.15;;;0.70;;
10596;SDS011;5346;48.766;8.674;2023-10-31T15:01:37;3.08;;;0.73;;
10596;SDS011;5346;48.766;8.674;2023-10-31T15:04:05;1.05;;;0.73;;
10596;SDS011;5346;48.766;8.674;2023-10-31T15:06:39;1.92;;;0.57;;
10596;SDS011;5346;48.766;8.674;2023-10-31T15:09:07;1.13;;;0.50;;
10596;SDS011;5346;48.766;8.674;2023-10-31T15:11:34;1.65;;;0.50;;
10596;SDS011;5346;48.766;8.674;2023-10-31T15:14:16;1.90;;;0.50;;
10596;SDS011;5346;48.766;8.674;2023-10-31T15:16:57;2.03;;;0.40;;
10596;SDS011;5346;48.766;8.674;2023-10-31T15:19:31;0.95;;;0.60;;
10596;SDS011;5346;48.766;8.674;2023-10-31T15:21:59;1.47;;;0.50;;
10596;SDS011;5346;48.766;8.674;2023-10-31T15:24:35;0.82;;;0.50;;
10596;SDS011;5346;48.766;8.674;2023-10-31T15:27:02;0.93;;;0.70;;
10596;SDS011;5346;48.766;8.674;2023-10-31T15:29:39;0.95;;;0.60;;
10596;SDS011;5346;48.766;8.674;2023-10-31T15:32:16;1.05;;;0.70;;
10596;SDS011;5346;48.766;8.674;2023-10-31T15:34:44;0.90;;;0.63;;
10596;SDS011;5346;48.766;8.674;2023-10-31T15:37:18;1.05;;;0.60;;
10596;SDS011;5346;48.766;8.674;2023-10-31T15:39:46;0.82;;;0.60;;
10596;SDS011;5346;48.766;8.674;2023-10-31T15:42:21;1.40;;;0.93;;